Terminal Aerodrome Forecast
Issued by NWS

Home | Current Version | Previous Version | Graphics & Text | Print | Product List | Glossary On
Versions: 1 2 3 4 5 6 7 8 9 10 11 12 13
300
FTUS42 KMHX 231732
TAFPGV
TAF
KPGV 231732Z 2318/2418 VRB03KT P6SM SCT030
     FM241000 VRB03KT 5SM BR SKC
     FM241200 VRB04KT P6SM SKC
      AMD LTD TO CLD VIS AND WIND=

USA.gov is the U.S. government's official web portal to all federal, state and local government web resources and services.